Pinellas Park, Florida
Current Conditions -  °F | °C
As of 11:53 AM on Friday 24 Oct 2014 (Local Time) from KPIE Reporting Station
Few Clouds Few Clouds  
Wind Chill: 76°   Ceiling: Unl
Heat Index: 76°   Visibility: 10mi
Dew Point: 59°   Wind: 9mph
Humidity: 56%   Direction: 10°N
Pressure: 30.01"   Gusts: NA
Location:  27.84°N, 82.7°W
Report Text: KPIE 241553Z 01008KT 10SM FEW038 24/15 A3001 RMK AO2 SLP160 T02440150
Loading
Personal Weather Stations






























Interactive Weather Map
Tropical Storm Tracking
New forecast layout! Learn more

10-Day Weather Forecast

Advertisements
Track Severe Weather on mobile